sensor_id;sensor_type;location;lat;lon;timestamp;pressure;altitude;pressure_sealevel;temperature;humidity
73700;BME280;62005;50.082;8.988;2022-07-15T18:13:48;100804.88;;;20.79;60.87
73700;BME280;62005;50.082;8.988;2022-07-15T18:16:14;100807.06;;;20.82;60.84
73700;BME280;62005;50.082;8.988;2022-07-15T18:18:39;100814.75;;;20.85;60.74
73700;BME280;62005;50.082;8.988;2022-07-15T18:21:05;100812.53;;;20.87;60.88
73700;BME280;62005;50.082;8.988;2022-07-15T18:23:32;100811.97;;;20.90;60.66
73700;BME280;62005;50.082;8.988;2022-07-15T18:25:58;100814.72;;;20.95;60.46
73700;BME280;62005;50.082;8.988;2022-07-15T18:28:23;100812.81;;;21.00;60.56
73700;BME280;62005;50.082;8.988;2022-07-15T18:30:49;100818.56;;;21.04;60.63
73700;BME280;62005;50.082;8.988;2022-07-15T18:33:14;100815.25;;;21.07;60.54
73700;BME280;62005;50.082;8.988;2022-07-15T18:35:39;100811.13;;;21.09;60.49
73700;BME280;62005;50.082;8.988;2022-07-15T18:38:05;100813.03;;;21.14;60.05
73700;BME280;62005;50.082;8.988;2022-07-15T18:46:28;100737.84;;;22.86;40.00
73700;BME280;62005;50.082;8.988;2022-07-15T18:48:54;100735.47;;;22.56;41.93
73700;BME280;62005;50.082;8.988;2022-07-15T18:51:22;100724.56;;;22.18;39.36
73700;BME280;62005;50.082;8.988;2022-07-15T18:53:48;100720.56;;;22.00;38.68
73700;BME280;62005;50.082;8.988;2022-07-15T18:56:13;100727.38;;;21.79;38.96
73700;BME280;62005;50.082;8.988;2022-07-15T18:58:59;100745.53;;;21.80;41.71
73700;BME280;62005;50.082;8.988;2022-07-15T19:01:27;100728.56;;;21.63;41.23
73700;BME280;62005;50.082;8.988;2022-07-15T19:07:33;100755.28;;;21.57;43.66
73700;BME280;62005;50.082;8.988;2022-07-15T19:09:59;100726.56;;;21.35;42.94
73700;BME280;62005;50.082;8.988;2022-07-15T19:12:24;100752.63;;;21.42;43.09
73700;BME280;62005;50.082;8.988;2022-07-15T19:14:49;100737.06;;;21.28;43.62
73700;BME280;62005;50.082;8.988;2022-07-15T19:17:15;100762.91;;;21.32;44.58
73700;BME280;62005;50.082;8.988;2022-07-15T19:19:53;100752.47;;;21.24;42.83
73700;BME280;62005;50.082;8.988;2022-07-15T19:22:25;100744.31;;;21.09;42.61
73700;BME280;62005;50.082;8.988;2022-07-15T19:24:53;100752.31;;;21.05;44.79
73700;BME280;62005;50.082;8.988;2022-07-15T19:27:19;100757.00;;;21.00;42.63
73700;BME280;62005;50.082;8.988;2022-07-15T19:29:47;100758.66;;;20.96;43.81
73700;BME280;62005;50.082;8.988;2022-07-15T19:32:25;100766.63;;;20.92;43.10
73700;BME280;62005;50.082;8.988;2022-07-15T19:34:52;100772.44;;;20.86;43.87
73700;BME280;62005;50.082;8.988;2022-07-15T19:40:24;100729.72;;;20.39;42.21
73700;BME280;62005;50.082;8.988;2022-07-15T19:42:56;100769.22;;;20.53;42.89
73700;BME280;62005;50.082;8.988;2022-07-15T19:45:25;100784.06;;;20.52;44.13
73700;BME280;62005;50.082;8.988;2022-07-15T19:48:11;100778.59;;;20.37;43.00
73700;BME280;62005;50.082;8.988;2022-07-15T19:50:37;100791.78;;;20.35;43.16
73700;BME280;62005;50.082;8.988;2022-07-15T19:53:05;100788.47;;;20.28;43.78
73700;BME280;62005;50.082;8.988;2022-07-15T19:55:32;100752.78;;;20.03;43.52
73700;BME280;62005;50.082;8.988;2022-07-15T19:58:01;100744.56;;;19.88;43.91
73700;BME280;62005;50.082;8.988;2022-07-15T20:00:29;100779.13;;;19.94;45.55
73700;BME280;62005;50.082;8.988;2022-07-15T20:02:57;100774.19;;;19.86;44.76
73700;BME280;62005;50.082;8.988;2022-07-15T20:05:25;100756.59;;;19.67;44.84
73700;BME280;62005;50.082;8.988;2022-07-15T20:08:08;100787.91;;;19.81;44.41
73700;BME280;62005;50.082;8.988;2022-07-15T20:10:34;100754.94;;;19.51;45.39
73700;BME280;62005;50.082;8.988;2022-07-15T20:12:59;100804.38;;;19.76;44.86
73700;BME280;62005;50.082;8.988;2022-07-15T20:15:25;100760.97;;;19.43;44.99
73700;BME280;62005;50.082;8.988;2022-07-15T20:17:59;100810.91;;;19.65;45.42
73700;BME280;62005;50.082;8.988;2022-07-15T20:20:27;100783.47;;;19.45;45.41
73700;BME280;62005;50.082;8.988;2022-07-15T20:22:53;100801.00;;;19.49;45.22
73700;BME280;62005;50.082;8.988;2022-07-15T20:25:19;100822.94;;;19.49;45.76
73700;BME280;62005;50.082;8.988;2022-07-15T20:27:44;100802.09;;;19.38;45.36
73700;BME280;62005;50.082;8.988;2022-07-15T20:30:12;100810.84;;;19.35;45.22
73700;BME280;62005;50.082;8.988;2022-07-15T20:32:39;100813.00;;;19.28;45.35
73700;BME280;62005;50.082;8.988;2022-07-15T20:35:05;100809.09;;;19.19;45.97
73700;BME280;62005;50.082;8.988;2022-07-15T20:37:31;100788.72;;;18.95;46.59
73700;BME280;62005;50.082;8.988;2022-07-15T20:39:56;100807.97;;;19.05;46.64
73700;BME280;62005;50.082;8.988;2022-07-15T20:42:21;100813.97;;;18.97;47.17
73700;BME280;62005;50.082;8.988;2022-07-15T20:44:47;100808.44;;;18.87;46.95
73700;BME280;62005;50.082;8.988;2022-07-15T20:47:12;100818.78;;;18.80;47.69
73700;BME280;62005;50.082;8.988;2022-07-15T20:49:38;100813.78;;;18.67;47.59
73700;BME280;62005;50.082;8.988;2022-07-15T20:52:04;100829.63;;;18.60;48.01
73700;BME280;62005;50.082;8.988;2022-07-15T20:54:29;100817.13;;;18.37;48.85
73700;BME280;62005;50.082;8.988;2022-07-15T20:56:55;100829.34;;;18.30;49.33
73700;BME280;62005;50.082;8.988;2022-07-15T20:59:21;100817.00;;;18.22;49.39
73700;BME280;62005;50.082;8.988;2022-07-15T21:01:47;100818.38;;;18.19;49.75
73700;BME280;62005;50.082;8.988;2022-07-15T21:04:13;100825.75;;;18.19;49.78
73700;BME280;62005;50.082;8.988;2022-07-15T21:06:39;100813.81;;;18.03;49.87
73700;BME280;62005;50.082;8.988;2022-07-15T21:09:05;100820.88;;;17.94;50.23
73700;BME280;62005;50.082;8.988;2022-07-15T21:11:31;100831.81;;;17.94;50.28
73700;BME280;62005;50.082;8.988;2022-07-15T21:13:57;100831.50;;;17.91;50.86
73700;BME280;62005;50.082;8.988;2022-07-15T21:16:23;100818.00;;;17.79;50.36
73700;BME280;62005;50.082;8.988;2022-07-15T21:18:48;100815.22;;;17.74;50.57
73700;BME280;62005;50.082;8.988;2022-07-15T21:21:13;100831.09;;;17.77;50.23
73700;BME280;62005;50.082;8.988;2022-07-15T21:23:39;100828.19;;;17.62;50.59
73700;BME280;62005;50.082;8.988;2022-07-15T21:26:04;100830.56;;;17.32;51.69
73700;BME280;62005;50.082;8.988;2022-07-15T21:28:48;100838.63;;;17.22;52.60
73700;BME280;62005;50.082;8.988;2022-07-15T21:31:14;100827.09;;;17.15;52.48
73700;BME280;62005;50.082;8.988;2022-07-15T21:33:39;100832.69;;;17.25;52.24
73700;BME280;62005;50.082;8.988;2022-07-15T21:36:05;100836.47;;;17.24;51.82
73700;BME280;62005;50.082;8.988;2022-07-15T21:38:30;100828.03;;;17.04;52.04
73700;BME280;62005;50.082;8.988;2022-07-15T21:40:57;100839.41;;;16.96;52.13
73700;BME280;62005;50.082;8.988;2022-07-15T21:43:22;100845.72;;;16.80;52.79
73700;BME280;62005;50.082;8.988;2022-07-15T21:45:48;100838.34;;;16.59;53.31
73700;BME280;62005;50.082;8.988;2022-07-15T21:48:13;100846.88;;;16.46;53.56
73700;BME280;62005;50.082;8.988;2022-07-15T21:50:38;100843.63;;;16.32;54.04
73700;BME280;62005;50.082;8.988;2022-07-15T21:53:04;100855.38;;;16.33;55.00
73700;BME280;62005;50.082;8.988;2022-07-15T21:55:30;100853.03;;;16.25;56.69
73700;BME280;62005;50.082;8.988;2022-07-15T21:57:55;100848.06;;;16.22;56.25
73700;BME280;62005;50.082;8.988;2022-07-15T22:00:21;100863.47;;;16.28;58.82
73700;BME280;62005;50.082;8.988;2022-07-15T22:03:03;100866.09;;;16.23;59.48
73700;BME280;62005;50.082;8.988;2022-07-15T22:05:29;100864.03;;;16.30;58.74
73700;BME280;62005;50.082;8.988;2022-07-15T22:07:54;100848.81;;;16.34;57.63
73700;BME280;62005;50.082;8.988;2022-07-15T22:10:20;100856.00;;;16.40;56.91
73700;BME280;62005;50.082;8.988;2022-07-15T22:12:45;100842.28;;;16.35;56.40
73700;BME280;62005;50.082;8.988;2022-07-15T22:15:11;100857.66;;;16.41;56.60
73700;BME280;62005;50.082;8.988;2022-07-15T22:17:37;100846.09;;;16.34;56.65
73700;BME280;62005;50.082;8.988;2022-07-15T22:20:02;100842.78;;;16.32;56.63
73700;BME280;62005;50.082;8.988;2022-07-15T22:22:28;100850.88;;;16.27;56.95
73700;BME280;62005;50.082;8.988;2022-07-15T22:24:53;100865.94;;;16.29;56.75
73700;BME280;62005;50.082;8.988;2022-07-15T22:27:20;100867.25;;;16.27;56.63
73700;BME280;62005;50.082;8.988;2022-07-15T22:29:46;100861.28;;;16.13;57.33
73700;BME280;62005;50.082;8.988;2022-07-15T22:32:11;100855.63;;;15.87;57.21
73700;BME280;62005;50.082;8.988;2022-07-15T22:34:40;100864.06;;;15.85;57.94
73700;BME280;62005;50.082;8.988;2022-07-15T22:37:06;100855.94;;;15.74;57.77
73700;BME280;62005;50.082;8.988;2022-07-15T22:39:31;100868.41;;;15.70;58.21
73700;BME280;62005;50.082;8.988;2022-07-15T22:41:57;100840.88;;;15.54;58.40
73700;BME280;62005;50.082;8.988;2022-07-15T22:44:22;100880.06;;;15.65;57.75
73700;BME280;62005;50.082;8.988;2022-07-15T22:46:47;100865.78;;;15.46;58.30
73700;BME280;62005;50.082;8.988;2022-07-15T22:49:13;100870.25;;;15.52;58.12
73700;BME280;62005;50.082;8.988;2022-07-15T22:51:38;100857.50;;;15.41;58.15
73700;BME280;62005;50.082;8.988;2022-07-15T22:54:03;100880.47;;;15.45;58.09
73700;BME280;62005;50.082;8.988;2022-07-15T22:56:29;100866.72;;;15.40;57.67
73700;BME280;62005;50.082;8.988;2022-07-15T22:58:55;100868.88;;;15.38;58.39
73700;BME280;62005;50.082;8.988;2022-07-15T23:01:20;100873.25;;;15.39;57.81
73700;BME280;62005;50.082;8.988;2022-07-15T23:03:45;100885.66;;;15.35;58.16
73700;BME280;62005;50.082;8.988;2022-07-15T23:06:11;100870.66;;;15.33;58.17
73700;BME280;62005;50.082;8.988;2022-07-15T23:08:36;100839.81;;;15.04;57.92
73700;BME280;62005;50.082;8.988;2022-07-15T23:11:02;100861.72;;;14.98;58.99
73700;BME280;62005;50.082;8.988;2022-07-15T23:13:27;100876.06;;;14.93;59.71
73700;BME280;62005;50.082;8.988;2022-07-15T23:15:52;100872.50;;;14.58;60.20
73700;BME280;62005;50.082;8.988;2022-07-15T23:18:18;100883.03;;;14.55;60.65
73700;BME280;62005;50.082;8.988;2022-07-15T23:20:43;100873.47;;;14.52;59.84
73700;BME280;62005;50.082;8.988;2022-07-15T23:23:08;100882.13;;;14.61;59.59
73700;BME280;62005;50.082;8.988;2022-07-15T23:25:34;100883.28;;;14.65;59.80
73700;BME280;62005;50.082;8.988;2022-07-15T23:27:59;100871.34;;;14.54;60.44
73700;BME280;62005;50.082;8.988;2022-07-15T23:30:24;100866.03;;;14.48;60.38
73700;BME280;62005;50.082;8.988;2022-07-15T23:32:50;100876.53;;;14.44;60.70
73700;BME280;62005;50.082;8.988;2022-07-15T23:35:15;100877.81;;;14.42;60.91
73700;BME280;62005;50.082;8.988;2022-07-15T23:37:40;100874.81;;;14.20;61.94
73700;BME280;62005;50.082;8.988;2022-07-15T23:40:06;100875.50;;;14.04;62.29
73700;BME280;62005;50.082;8.988;2022-07-15T23:42:32;100883.88;;;14.02;62.42
73700;BME280;62005;50.082;8.988;2022-07-15T23:44:57;100888.38;;;14.08;62.83
73700;BME280;62005;50.082;8.988;2022-07-15T23:47:23;100885.44;;;14.10;62.11
73700;BME280;62005;50.082;8.988;2022-07-15T23:49:48;100876.97;;;14.18;62.29
73700;BME280;62005;50.082;8.988;2022-07-15T23:52:14;100868.97;;;14.05;62.95
73700;BME280;62005;50.082;8.988;2022-07-15T23:54:39;100880.47;;;14.07;63.12
73700;BME280;62005;50.082;8.988;2022-07-15T23:57:05;100885.78;;;14.13;63.14
73700;BME280;62005;50.082;8.988;2022-07-15T23:59:30;100869.59;;;14.07;62.54
